Time;durP1;ratioP1;P1;durP2;ratioP2;P2;SDS_P1;SDS_P2;PMS_P1;PMS_P2;Temp;Humidity;BMP_temperature;BMP_pressure;BME280_temperature;BME280_humidity;BME280_pressure;Samples;Min_cycle;Max_cycle;Signal;HPM_P1;HPM_P2
2024/03/02 00:00:20;;;;;;;13.80;9.30;;;;;;;;;;5086552;28;20451;-56
2024/03/02 00:02:47;;;;;;;13.80;9.25;;;;;;;;;;5086137;28;20024;-54
2024/03/02 00:05:14;;;;;;;13.93;9.57;;;;;;;;;;5087065;28;20030;-54
2024/03/02 00:07:43;;;;;;;13.90;9.52;;;;;;;;;;5086992;28;20049;-59
2024/03/02 00:10:13;;;;;;;13.90;9.55;;;;;;;;;;5086478;28;20034;-54
2024/03/02 00:12:40;;;;;;;13.95;9.77;;;;;;;;;;5086135;28;20036;-56
2024/03/02 00:15:26;;;;;;;13.95;9.68;;;;;;;;;;5086912;28;20059;-55
2024/03/02 00:17:55;;;;;;;13.85;9.63;;;;;;;;;;5069400;28;20032;-58
2024/03/02 00:20:28;;;;;;;13.95;9.85;;;;;;;;;;5087060;28;20028;-53
2024/03/02 00:23:04;;;;;;;13.98;9.60;;;;;;;;;;5085641;28;20805;-54
2024/03/02 00:26:02;;;;;;;13.90;9.50;;;;;;;;;;5086683;28;20172;-57
2024/03/02 00:28:28;;;;;;;;;;;;;;;;;;5035721;28;20040;-56
2024/03/02 00:30:57;;;;;;;13.98;9.68;;;;;;;;;;5086445;28;19908;-53
2024/03/02 00:33:24;;;;;;;14.18;10.00;;;;;;;;;;5085652;28;20131;-55
2024/03/02 00:35:50;;;;;;;13.90;9.50;;;;;;;;;;5086358;28;20035;-52
2024/03/02 00:38:16;;;;;;;14.00;9.80;;;;;;;;;;5085510;28;20030;-57
2024/03/02 00:40:43;;;;;;;14.00;10.07;;;;;;;;;;5085916;28;20042;-51
2024/03/02 00:43:29;;;;;;;13.95;9.77;;;;;;;;;;5067430;28;20032;-56
2024/03/02 00:45:55;;;;;;;13.95;9.68;;;;;;;;;;5068659;28;20119;-54
2024/03/02 00:48:21;;;;;;;14.05;9.98;;;;;;;;;;5086408;28;20461;-56
2024/03/02 00:50:51;;;;;;;14.02;9.90;;;;;;;;;;5086497;28;20055;-59
2024/03/02 00:53:18;;;;;;;13.90;9.40;;;;;;;;;;5085419;28;20490;-59
2024/03/02 00:55:47;;;;;;;13.90;9.50;;;;;;;;;;5086304;28;20804;-58
2024/03/02 00:58:13;;;;;;;13.98;9.77;;;;;;;;;;5085367;28;20034;-54
2024/03/02 01:00:39;;;;;;;14.20;10.40;;;;;;;;;;5086141;28;20107;-54
2024/03/02 01:03:05;;;;;;;14.10;10.00;;;;;;;;;;5085189;28;20573;-52
2024/03/02 01:05:31;;;;;;;13.93;9.65;;;;;;;;;;5086226;28;20024;-51
2024/03/02 01:07:57;;;;;;;13.88;9.45;;;;;;;;;;5085672;28;20031;-54
2024/03/02 01:10:23;;;;;;;13.90;9.45;;;;;;;;;;5085549;28;20085;-54
2024/03/02 01:12:49;;;;;;;13.82;9.35;;;;;;;;;;5062599;28;20690;-49
2024/03/02 01:15:15;;;;;;;13.90;9.45;;;;;;;;;;5067763;28;20036;-52
2024/03/02 01:17:41;;;;;;;13.57;8.85;;;;;;;;;;5068567;28;20048;-54
2024/03/02 01:20:09;;;;;;;13.95;9.50;;;;;;;;;;5069061;28;20242;-54
2024/03/02 01:22:35;;;;;;;13.82;9.32;;;;;;;;;;5068043;28;20036;-57
2024/03/02 01:25:01;;;;;;;13.85;9.38;;;;;;;;;;5068374;28;20080;-53
2024/03/02 01:27:28;;;;;;;13.90;9.48;;;;;;;;;;5068877;28;20028;-53
2024/03/02 01:29:54;;;;;;;13.85;9.32;;;;;;;;;;5068964;28;20037;-52
2024/03/02 01:32:20;;;;;;;13.93;9.63;;;;;;;;;;5068091;28;20029;-55
2024/03/02 01:34:46;;;;;;;13.90;9.60;;;;;;;;;;5069077;28;20025;-56
2024/03/02 01:37:12;;;;;;;13.82;9.23;;;;;;;;;;5069258;28;20037;-53
2024/03/02 01:39:38;;;;;;;13.88;9.40;;;;;;;;;;5069381;28;20027;-54
2024/03/02 01:42:04;;;;;;;13.80;9.27;;;;;;;;;;5068449;28;20111;-54
2024/03/02 01:44:30;;;;;;;13.90;9.40;;;;;;;;;;5051561;28;20113;-55
2024/03/02 01:46:56;;;;;;;13.88;9.35;;;;;;;;;;5069365;28;20029;-50
2024/03/02 01:49:22;;;;;;;13.77;9.20;;;;;;;;;;5069620;28;20070;-52
2024/03/02 01:51:48;;;;;;;13.95;9.48;;;;;;;;;;5055150;28;20064;-52
2024/03/02 01:54:14;;;;;;;13.90;9.50;;;;;;;;;;5072393;28;20127;-52
2024/03/02 01:56:40;;;;;;;14.55;10.27;;;;;;;;;;5072207;28;20029;-56
2024/03/02 01:59:06;;;;;;;14.00;10.00;;;;;;;;;;5072751;28;20103;-53
2024/03/02 02:01:32;;;;;;;14.10;9.70;;;;;;;;;;5072552;28;20052;-54
2024/03/02 02:03:59;;;;;;;13.85;9.35;;;;;;;;;;5072292;28;20073;-52
2024/03/02 02:06:25;;;;;;;13.70;9.00;;;;;;;;;;5072646;28;20025;-52
2024/03/02 02:08:51;;;;;;;14.30;9.50;;;;;;;;;;5072676;28;20104;-54
2024/03/02 02:11:17;;;;;;;13.75;9.10;;;;;;;;;;5072478;28;20052;-53
2024/03/02 02:13:43;;;;;;;13.70;9.02;;;;;;;;;;5071789;28;20409;-53
2024/03/02 02:16:09;;;;;;;13.88;9.30;;;;;;;;;;5072561;28;20154;-54
2024/03/02 02:18:38;;;;;;;13.90;9.40;;;;;;;;;;5072753;28;20021;-52
2024/03/02 02:21:04;;;;;;;13.80;9.30;;;;;;;;;;5072345;28;20024;-60
2024/03/02 02:23:30;;;;;;;13.88;9.50;;;;;;;;;;5084894;28;20105;-57
2024/03/02 02:25:56;;;;;;;13.77;9.20;;;;;;;;;;5092426;28;20516;-57
2024/03/02 02:28:22;;;;;;;13.75;9.10;;;;;;;;;;5093076;28;20031;-56
2024/03/02 02:30:48;;;;;;;13.77;9.20;;;;;;;;;;5092779;28;20050;-51
2024/03/02 02:33:14;;;;;;;13.98;9.50;;;;;;;;;;5091673;28;20254;-55
2024/03/02 02:35:40;;;;;;;14.00;9.88;;;;;;;;;;5092641;28;20070;-52
2024/03/02 02:38:06;;;;;;;13.80;9.30;;;;;;;;;;5092517;28;20026;-57
2024/03/02 02:40:32;;;;;;;13.80;9.20;;;;;;;;;;5092219;28;20020;-54
2024/03/02 02:42:59;;;;;;;13.77;9.13;;;;;;;;;;5091584;28;20508;-54
2024/03/02 02:45:25;;;;;;;13.75;9.10;;;;;;;;;;5092403;28;20035;-55
2024/03/02 02:47:51;;;;;;;13.80;9.20;;;;;;;;;;5092339;28;20077;-57
2024/03/02 02:50:17;;;;;;;13.88;9.40;;;;;;;;;;5092201;28;20036;-57
2024/03/02 02:52:43;;;;;;;13.85;9.30;;;;;;;;;;5073151;28;20063;-55
2024/03/02 02:55:14;;;;;;;13.75;9.07;;;;;;;;;;5073824;28;20016;-56
2024/03/02 02:57:41;;;;;;;14.10;9.82;;;;;;;;;;5091913;28;20029;-55
2024/03/02 03:00:13;;;;;;;13.82;9.35;;;;;;;;;;5092103;28;20020;-56
2024/03/02 03:02:41;;;;;;;13.68;8.88;;;;;;;;;;5090494;28;20051;-58
2024/03/02 03:05:07;;;;;;;13.70;8.90;;;;;;;;;;5091883;28;20047;-58
2024/03/02 03:07:34;;;;;;;13.68;8.98;;;;;;;;;;5091824;28;20016;-57
2024/03/02 03:10:01;;;;;;;13.63;8.80;;;;;;;;;;5091905;28;20077;-53
2024/03/02 03:12:27;;;;;;;13.55;8.65;;;;;;;;;;5090764;28;20081;-53
2024/03/02 03:14:53;;;;;;;13.70;8.90;;;;;;;;;;5091677;28;20481;-55
2024/03/02 03:17:19;;;;;;;13.80;9.23;;;;;;;;;;5091597;28;20107;-52
2024/03/02 03:19:45;;;;;;;15.13;10.30;;;;;;;;;;5073449;28;20031;-55
2024/03/02 03:22:11;;;;;;;13.75;9.07;;;;;;;;;;5090733;28;20020;-54
2024/03/02 03:24:37;;;;;;;13.88;9.43;;;;;;;;;;5090838;28;20020;-54
2024/03/02 03:27:03;;;;;;;13.68;9.02;;;;;;;;;;5091481;28;20032;-54
2024/03/02 03:29:29;;;;;;;13.75;9.25;;;;;;;;;;5073152;28;20107;-58
2024/03/02 03:31:55;;;;;;;13.80;9.23;;;;;;;;;;5073093;28;20024;-55
2024/03/02 03:34:21;;;;;;;13.80;9.23;;;;;;;;;;5090601;28;20043;-55
2024/03/02 03:36:47;;;;;;;13.80;9.15;;;;;;;;;;5091323;28;20073;-59
2024/03/02 03:39:13;;;;;;;13.68;9.13;;;;;;;;;;5091310;28;20024;-56
2024/03/02 03:41:39;;;;;;;13.70;9.00;;;;;;;;;;5090877;28;20050;-56
2024/03/02 03:44:04;;;;;;;13.80;9.30;;;;;;;;;;5090773;28;20472;-55
2024/03/02 03:46:30;;;;;;;13.75;9.15;;;;;;;;;;5091301;28;20063;-51
2024/03/02 03:48:56;;;;;;;13.90;9.50;;;;;;;;;;5073018;28;20085;-52
2024/03/02 03:51:22;;;;;;;13.82;9.32;;;;;;;;;;5090924;28;20024;-52
2024/03/02 03:53:49;;;;;;;13.88;9.38;;;;;;;;;;5072370;28;20439;-55
2024/03/02 03:56:15;;;;;;;13.80;9.25;;;;;;;;;;5091104;28;20126;-55
2024/03/02 03:58:41;;;;;;;13.88;9.57;;;;;;;;;;5091173;28;20020;-55
2024/03/02 04:01:08;;;;;;;13.88;9.45;;;;;;;;;;5090707;28;20508;-50
2024/03/02 04:03:34;;;;;;;13.88;9.40;;;;;;;;;;5090403;28;20020;-51
2024/03/02 04:06:00;;;;;;;13.88;9.55;;;;;;;;;;5090133;28;20031;-53
2024/03/02 04:08:26;;;;;;;13.88;9.52;;;;;;;;;;5090709;28;20040;-56
2024/03/02 04:10:52;;;;;;;13.82;9.30;;;;;;;;;;5090422;28;20020;-57
2024/03/02 04:13:18;;;;;;;13.82;9.30;;;;;;;;;;5088956;28;20486;-55
2024/03/02 04:15:44;;;;;;;13.90;9.48;;;;;;;;;;5090527;28;20077;-54
2024/03/02 04:18:09;;;;;;;13.75;9.30;;;;;;;;;;5090488;28;20030;-54
2024/03/02 04:20:35;;;;;;;13.73;9.30;;;;;;;;;;5090539;28;20024;-54
2024/03/02 04:23:01;;;;;;;13.75;9.20;;;;;;;;;;5089625;28;20119;-52
2024/03/02 04:25:27;;;;;;;13.85;9.30;;;;;;;;;;5090351;28;20073;-54
2024/03/02 04:27:53;;;;;;;13.80;9.27;;;;;;;;;;5090261;28;20450;-54
2024/03/02 04:30:19;;;;;;;13.82;9.35;;;;;;;;;;5090226;28;20066;-53
2024/03/02 04:32:48;;;;;;;13.88;9.30;;;;;;;;;;5089442;28;20035;-52
2024/03/02 04:35:15;;;;;;;13.90;9.50;;;;;;;;;;5090010;28;20032;-55
2024/03/02 04:37:41;;;;;;;13.90;9.52;;;;;;;;;;5089752;28;20471;-54
2024/03/02 04:40:10;;;;;;;13.88;9.50;;;;;;;;;;5089955;28;20024;-58
2024/03/02 04:42:36;;;;;;;13.93;9.60;;;;;;;;;;5089150;28;20024;-52
2024/03/02 04:45:02;;;;;;;13.90;9.50;;;;;;;;;;5089939;28;20560;-52
2024/03/02 04:47:28;;;;;;;13.90;9.60;;;;;;;;;;5071065;28;20111;-58
2024/03/02 04:49:54;;;;;;;13.75;9.30;;;;;;;;;;5089706;28;20025;-56
2024/03/02 04:52:20;;;;;;;13.73;9.15;;;;;;;;;;5089726;28;20031;-56
2024/03/02 04:57:31;;;;;;;13.90;9.55;;;;;;;;;;5090139;28;20195;-57
2024/03/02 04:59:57;;;;;;;13.77;9.25;;;;;;;;;;5089924;28;20644;-59
2024/03/02 05:02:23;;;;;;;13.90;9.40;;;;;;;;;;5089142;28;20177;-56
2024/03/02 05:04:49;;;;;;;13.90;9.60;;;;;;;;;;5089772;28;20023;-51
2024/03/02 05:07:15;;;;;;;13.95;9.80;;;;;;;;;;5072151;28;20162;-54
2024/03/02 05:09:42;;;;;;;14.00;9.85;;;;;;;;;;5089608;28;20441;-57
2024/03/02 05:12:29;;;;;;;14.10;10.20;;;;;;;;;;5088593;28;20020;-57
2024/03/02 05:14:55;;;;;;;13.95;9.70;;;;;;;;;;5090280;28;20020;-55
2024/03/02 05:17:21;;;;;;;13.90;9.80;;;;;;;;;;5089934;28;20020;-56
2024/03/02 05:19:47;;;;;;;14.00;9.80;;;;;;;;;;5089910;28;20107;-56
2024/03/02 05:22:13;;;;;;;14.00;9.85;;;;;;;;;;5088965;28;20020;-52
2024/03/02 05:24:39;;;;;;;13.93;9.70;;;;;;;;;;5089364;28;20038;-54
2024/03/02 05:27:07;;;;;;;14.02;10.00;;;;;;;;;;5089525;28;20032;-53
2024/03/02 05:29:33;;;;;;;14.00;10.00;;;;;;;;;;5089458;28;20025;-51
2024/03/02 05:31:59;;;;;;;14.10;10.13;;;;;;;;;;5089155;28;20031;-56
2024/03/02 05:34:25;;;;;;;14.10;10.15;;;;;;;;;;5089135;28;20032;-55
2024/03/02 05:36:51;;;;;;;14.07;10.10;;;;;;;;;;5089408;28;20367;-56
2024/03/02 05:39:17;;;;;;;14.10;9.98;;;;;;;;;;5089324;28;20067;-56
2024/03/02 05:41:43;;;;;;;14.00;10.00;;;;;;;;;;5088468;28;20075;-54
2024/03/02 05:44:09;;;;;;;14.00;10.07;;;;;;;;;;5088866;28;20486;-58
2024/03/02 05:46:35;;;;;;;14.13;10.13;;;;;;;;;;5089310;28;20485;-57
2024/03/02 05:49:01;;;;;;;14.10;10.10;;;;;;;;;;5089179;28;20043;-55
2024/03/02 05:51:27;;;;;;;14.10;10.15;;;;;;;;;;5071027;28;20514;-60
2024/03/02 05:53:53;;;;;;;14.10;10.10;;;;;;;;;;5088679;28;20024;-51
2024/03/02 05:56:19;;;;;;;14.10;10.10;;;;;;;;;;5071042;28;20024;-53
2024/03/02 06:01:30;;;;;;;14.13;10.32;;;;;;;;;;5089295;28;20051;-57
2024/03/02 06:03:56;;;;;;;14.07;10.10;;;;;;;;;;5088692;28;20039;-57
2024/03/02 06:06:23;;;;;;;14.10;10.18;;;;;;;;;;5089203;28;20059;-56
2024/03/02 06:08:50;;;;;;;14.10;10.18;;;;;;;;;;5089247;28;20409;-55
2024/03/02 06:11:16;;;;;;;14.25;10.45;;;;;;;;;;5088955;28;20074;-54
2024/03/02 06:13:42;;;;;;;14.15;10.18;;;;;;;;;;5088396;28;20481;-57
2024/03/02 06:16:08;;;;;;;14.20;10.27;;;;;;;;;;5070928;28;20075;-56
2024/03/02 06:18:34;;;;;;;14.10;10.05;;;;;;;;;;5089327;28;20028;-55
2024/03/02 06:21:03;;;;;;;14.25;10.60;;;;;;;;;;5088939;28;20020;-56
2024/03/02 06:23:29;;;;;;;14.13;10.07;;;;;;;;;;5088463;28;20048;-54
2024/03/02 06:25:55;;;;;;;14.02;10.18;;;;;;;;;;5089029;28;20034;-52
2024/03/02 06:28:21;;;;;;;14.07;10.05;;;;;;;;;;5088834;28;20032;-58
2024/03/02 06:30:47;;;;;;;14.20;10.27;;;;;;;;;;5088605;28;20447;-57
2024/03/02 06:33:13;;;;;;;14.07;10.07;;;;;;;;;;5088111;28;20036;-54
2024/03/02 06:35:39;;;;;;;14.20;10.25;;;;;;;;;;5089139;28;20016;-56
2024/03/02 06:38:05;;;;;;;14.10;10.20;;;;;;;;;;5092312;28;20028;-49
2024/03/02 06:40:31;;;;;;;14.02;10.02;;;;;;;;;;5092790;28;20028;-55
2024/03/02 06:42:57;;;;;;;14.10;10.10;;;;;;;;;;5091727;28;20024;-51
2024/03/02 06:45:23;;;;;;;14.20;10.18;;;;;;;;;;5092009;28;20078;-55
2024/03/02 06:47:49;;;;;;;14.18;10.30;;;;;;;;;;5091935;28;20653;-52
2024/03/02 06:50:15;;;;;;;14.10;10.10;;;;;;;;;;5092177;28;20074;-53
2024/03/02 06:52:42;;;;;;;14.10;10.05;;;;;;;;;;5091555;28;20426;-54
2024/03/02 06:55:08;;;;;;;13.90;9.50;;;;;;;;;;5074213;28;20016;-55
2024/03/02 06:57:34;;;;;;;14.10;10.00;;;;;;;;;;5092127;28;20403;-54
2024/03/02 07:00:00;;;;;;;14.00;9.90;;;;;;;;;;5092002;28;20028;-56
2024/03/02 07:02:26;;;;;;;13.98;9.70;;;;;;;;;;5091417;28;20371;-56
2024/03/02 07:04:53;;;;;;;13.95;9.60;;;;;;;;;;5092102;28;20016;-55
2024/03/02 07:07:19;;;;;;;13.88;9.65;;;;;;;;;;5092007;28;20035;-54
2024/03/02 07:09:45;;;;;;;13.98;9.75;;;;;;;;;;5091171;28;20020;-54
2024/03/02 07:12:11;;;;;;;13.90;9.63;;;;;;;;;;5090833;28;20390;-54
2024/03/02 07:15:11;;;;;;;13.98;9.77;;;;;;;;;;5092473;28;20020;-56
2024/03/02 07:17:37;;;;;;;13.93;9.55;;;;;;;;;;5091574;28;20020;-51
2024/03/02 07:20:06;;;;;;;13.85;9.40;;;;;;;;;;5090914;28;20020;-56
2024/03/02 07:22:33;;;;;;;13.90;9.48;;;;;;;;;;5090483;28;20094;-54
2024/03/02 07:24:59;;;;;;;13.93;9.65;;;;;;;;;;5091819;28;20028;-53
2024/03/02 07:27:25;;;;;;;13.95;9.70;;;;;;;;;;5091592;28;20044;-56
2024/03/02 07:29:51;;;;;;;14.05;9.80;;;;;;;;;;5091498;28;20397;-55
2024/03/02 07:32:17;;;;;;;13.98;9.85;;;;;;;;;;5090720;28;20016;-52
2024/03/02 07:34:43;;;;;;;14.15;10.15;;;;;;;;;;5091471;28;20060;-55
2024/03/02 07:37:09;;;;;;;14.05;9.88;;;;;;;;;;5091724;28;20024;-53
2024/03/02 07:39:35;;;;;;;13.93;9.60;;;;;;;;;;5091453;28;20066;-54
2024/03/02 07:42:01;;;;;;;14.07;9.90;;;;;;;;;;5090456;28;20024;-50
2024/03/02 07:44:27;;;;;;;13.93;9.65;;;;;;;;;;5090892;28;20111;-55
2024/03/02 07:46:53;;;;;;;14.00;9.77;;;;;;;;;;5091321;28;20059;-57
2024/03/02 07:49:19;;;;;;;13.98;9.80;;;;;;;;;;5072953;28;20024;-52
2024/03/02 07:51:45;;;;;;;13.90;9.60;;;;;;;;;;5090738;28;20401;-52
2024/03/02 07:54:11;;;;;;;13.65;8.93;;;;;;;;;;5068335;28;20045;-54
2024/03/02 07:56:38;;;;;;;13.88;9.48;;;;;;;;;;5082257;28;20028;-55
2024/03/02 07:59:04;;;;;;;13.70;8.98;;;;;;;;;;5076661;28;20024;-53
2024/03/02 08:01:31;;;;;;;13.75;9.02;;;;;;;;;;5070343;28;20043;-60
2024/03/02 08:04:01;;;;;;;13.80;9.10;;;;;;;;;;5089178;28;20027;-52
2024/03/02 08:06:27;;;;;;;13.80;9.20;;;;;;;;;;5090897;28;20111;-53
2024/03/02 08:08:54;;;;;;;13.82;9.32;;;;;;;;;;5072932;28;20035;-51
2024/03/02 08:11:20;;;;;;;13.80;9.20;;;;;;;;;;5080561;28;20593;-55
2024/03/02 08:13:46;;;;;;;13.80;9.38;;;;;;;;;;5070050;28;20029;-53
2024/03/02 08:16:12;;;;;;;13.85;9.30;;;;;;;;;;5070203;28;20040;-53
2024/03/02 08:18:38;;;;;;;13.90;9.60;;;;;;;;;;5070294;28;20021;-56
2024/03/02 08:21:04;;;;;;;13.75;9.10;;;;;;;;;;5070119;28;20362;-60
2024/03/02 08:23:31;;;;;;;14.48;10.02;;;;;;;;;;5069678;28;20052;-58
2024/03/02 08:25:57;;;;;;;13.68;9.02;;;;;;;;;;5070179;28;20070;-50
2024/03/02 08:28:23;;;;;;;13.60;8.75;;;;;;;;;;5079986;28;20024;-54
2024/03/02 08:30:49;;;;;;;13.80;9.30;;;;;;;;;;5090212;28;20052;-53
2024/03/02 08:33:15;;;;;;;13.85;9.45;;;;;;;;;;5088982;28;20466;-55
2024/03/02 08:35:41;;;;;;;13.80;9.35;;;;;;;;;;5089845;28;20032;-57
2024/03/02 08:38:07;;;;;;;13.85;9.48;;;;;;;;;;5089839;28;20031;-53
2024/03/02 08:40:33;;;;;;;13.75;9.10;;;;;;;;;;5071488;28;20020;-51
2024/03/02 08:42:59;;;;;;;13.88;9.55;;;;;;;;;;5071449;28;20024;-52
2024/03/02 08:45:25;;;;;;;13.85;9.30;;;;;;;;;;5089218;28;20035;-53
2024/03/02 08:47:52;;;;;;;13.80;9.30;;;;;;;;;;5089326;28;20081;-58
2024/03/02 08:50:18;;;;;;;15.10;9.40;;;;;;;;;;5090012;28;20047;-56
2024/03/02 08:52:44;;;;;;;13.77;9.20;;;;;;;;;;5088834;28;20059;-56
2024/03/02 08:55:11;;;;;;;13.80;9.15;;;;;;;;;;5089691;28;20108;-55
2024/03/02 08:57:37;;;;;;;13.80;9.18;;;;;;;;;;5089854;28;20513;-57
2024/03/02 09:00:05;;;;;;;13.88;9.40;;;;;;;;;;5071100;28;20498;-58
2024/03/02 09:02:31;;;;;;;13.90;9.40;;;;;;;;;;5089036;28;20023;-55
2024/03/02 09:04:57;;;;;;;13.80;9.27;;;;;;;;;;5089544;28;20305;-54
2024/03/02 09:07:23;;;;;;;13.75;9.05;;;;;;;;;;5089921;28;20104;-55
2024/03/02 09:09:49;;;;;;;13.73;9.00;;;;;;;;;;5089759;28;20386;-56
2024/03/02 09:12:15;;;;;;;13.75;9.10;;;;;;;;;;5088826;28;20039;-56
2024/03/02 09:14:41;;;;;;;13.80;9.15;;;;;;;;;;5071145;28;20487;-55
2024/03/02 09:17:10;;;;;;;13.80;9.20;;;;;;;;;;5089581;28;20031;-54
2024/03/02 09:19:36;;;;;;;13.70;9.00;;;;;;;;;;5089521;28;20020;-56
2024/03/02 09:22:05;;;;;;;13.73;9.05;;;;;;;;;;5088439;28;20076;-52
2024/03/02 09:24:31;;;;;;;13.63;8.95;;;;;;;;;;5089237;28;20031;-55
2024/03/02 09:26:57;;;;;;;14.30;10.38;;;;;;;;;;5089214;28;20077;-53
2024/03/02 09:29:23;;;;;;;13.68;9.10;;;;;;;;;;5088317;28;20439;-49
2024/03/02 09:31:50;;;;;;;13.68;8.93;;;;;;;;;;5089073;28;20028;-52
2024/03/02 09:34:16;;;;;;;13.77;9.25;;;;;;;;;;5089524;28;20115;-57
2024/03/02 09:36:42;;;;;;;13.88;9.50;;;;;;;;;;5090146;28;20069;-55
2024/03/02 09:39:09;;;;;;;13.70;9.10;;;;;;;;;;5071780;28;20405;-54
2024/03/02 09:41:36;;;;;;;13.75;9.15;;;;;;;;;;5088629;28;20032;-50
2024/03/02 09:44:03;;;;;;;13.80;9.30;;;;;;;;;;5088160;28;20055;-56
2024/03/02 09:46:29;;;;;;;13.65;8.88;;;;;;;;;;5089497;28;20124;-54
2024/03/02 09:48:55;;;;;;;13.68;8.90;;;;;;;;;;5089128;28;20047;-54
2024/03/02 09:51:21;;;;;;;13.63;9.00;;;;;;;;;;5088843;28;20035;-51
2024/03/02 09:53:48;;;;;;;13.68;8.80;;;;;;;;;;5088554;28;20082;-53
2024/03/02 09:56:15;;;;;;;13.65;8.85;;;;;;;;;;5089485;28;20012;-55
2024/03/02 09:58:42;;;;;;;13.70;9.00;;;;;;;;;;5070881;28;20454;-56
2024/03/02 10:01:09;;;;;;;13.80;9.15;;;;;;;;;;5071178;28;20028;-53
2024/03/02 10:03:37;;;;;;;13.60;8.73;;;;;;;;;;5088910;28;20039;-56
2024/03/02 10:06:21;;;;;;;13.52;8.48;;;;;;;;;;5089388;28;20024;-57
2024/03/02 10:08:50;;;;;;;13.50;8.30;;;;;;;;;;5089182;28;20031;-56
2024/03/02 10:11:28;;;;;;;13.50;8.50;;;;;;;;;;5089471;28;20028;-53
2024/03/02 10:14:14;;;;;;;13.55;8.63;;;;;;;;;;5092743;28;20055;-56
2024/03/02 10:16:41;;;;;;;13.57;8.48;;;;;;;;;;5093166;28;20144;-54
2024/03/02 10:19:26;;;;;;;13.43;8.27;;;;;;;;;;5074678;28;20020;-55
2024/03/02 10:21:53;;;;;;;13.43;8.18;;;;;;;;;;5092577;28;20031;-56
2024/03/02 10:24:19;;;;;;;13.52;8.40;;;;;;;;;;5092356;28;20032;-52
2024/03/02 10:26:46;;;;;;;13.38;8.10;;;;;;;;;;5092930;28;20478;-55
2024/03/02 10:29:12;;;;;;;13.52;8.40;;;;;;;;;;5092939;28;20039;-54
2024/03/02 10:31:39;;;;;;;13.48;8.30;;;;;;;;;;5074367;28;20046;-55
2024/03/02 10:34:05;;;;;;;13.55;8.60;;;;;;;;;;5091511;28;20028;-55
2024/03/02 10:36:32;;;;;;;13.38;8.18;;;;;;;;;;5092222;28;20031;-54
2024/03/02 10:38:59;;;;;;;13.38;8.27;;;;;;;;;;5093048;28;20016;-53
2024/03/02 10:41:27;;;;;;;13.48;8.38;;;;;;;;;;5092348;28;20027;-54
2024/03/02 10:43:59;;;;;;;13.35;8.10;;;;;;;;;;5091754;28;20553;-52
2024/03/02 10:46:34;;;;;;;13.45;8.27;;;;;;;;;;5074340;28;20040;-54
2024/03/02 10:49:02;;;;;;;13.40;8.00;;;;;;;;;;5093030;28;20544;-58
2024/03/02 10:51:31;;;;;;;14.55;9.40;;;;;;;;;;5057428;28;20139;-53
2024/03/02 10:53:57;;;;;;;13.50;8.38;;;;;;;;;;5091882;28;20456;-56
2024/03/02 10:56:32;;;;;;;13.38;8.20;;;;;;;;;;5091980;28;20029;-54
2024/03/02 10:59:03;;;;;;;13.50;8.50;;;;;;;;;;5073823;28;20016;-57
2024/03/02 11:01:30;;;;;;;13.48;8.40;;;;;;;;;;5091551;28;20461;-52
2024/03/02 11:03:57;;;;;;;13.23;7.93;;;;;;;;;;5091242;28;20405;-52
2024/03/02 11:06:23;;;;;;;13.25;7.90;;;;;;;;;;5091969;28;20039;-55
2024/03/02 11:08:50;;;;;;;13.35;8.02;;;;;;;;;;5092792;28;20052;-53
2024/03/02 11:11:19;;;;;;;13.45;8.30;;;;;;;;;;5091773;28;20031;-51
2024/03/02 11:13:49;;;;;;;21.02;12.10;;;;;;;;;;5091205;28;20028;-53
2024/03/02 11:16:35;;;;;;;13.40;8.10;;;;;;;;;;5091596;28;20504;-56
2024/03/02 11:19:09;;;;;;;13.52;8.48;;;;;;;;;;5092127;28;20058;-54
2024/03/02 11:21:35;;;;;;;14.10;8.50;;;;;;;;;;5091768;28;20012;-55
2024/03/02 11:24:22;;;;;;;13.55;8.50;;;;;;;;;;5072844;28;20031;-54
2024/03/02 11:26:48;;;;;;;13.52;8.68;;;;;;;;;;5091537;28;20058;-53
2024/03/02 11:29:33;;;;;;;13.63;8.73;;;;;;;;;;5091481;28;20051;-54
2024/03/02 11:32:00;;;;;;;13.52;8.65;;;;;;;;;;5072881;28;20393;-55
2024/03/02 11:34:30;;;;;;;13.90;9.50;;;;;;;;;;5095643;28;20113;-54
2024/03/02 11:36:56;;;;;;;13.75;9.10;;;;;;;;;;5083729;28;20048;-54
2024/03/02 11:39:22;;;;;;;13.85;9.32;;;;;;;;;;5080071;28;20028;-54
2024/03/02 11:41:48;;;;;;;13.90;9.55;;;;;;;;;;5079130;28;20455;-53
2024/03/02 11:44:16;;;;;;;13.90;9.40;;;;;;;;;;5070637;28;20103;-54
2024/03/02 11:46:42;;;;;;;13.90;9.60;;;;;;;;;;5070835;28;20032;-53
2024/03/02 11:49:09;;;;;;;13.88;9.50;;;;;;;;;;5070827;28;20039;-52
2024/03/02 11:51:35;;;;;;;13.73;9.13;;;;;;;;;;5070774;28;20032;-56
2024/03/02 11:54:03;;;;;;;13.95;9.60;;;;;;;;;;5070825;28;20020;-51
2024/03/02 11:56:29;;;;;;;13.90;9.50;;;;;;;;;;5083440;28;20077;-53
2024/03/02 11:58:55;;;;;;;13.75;9.30;;;;;;;;;;5087167;28;20095;-50
2024/03/02 12:01:21;;;;;;;14.13;9.98;;;;;;;;;;5078504;28;20482;-52
2024/03/02 12:03:48;;;;;;;13.88;9.50;;;;;;;;;;5090055;28;20085;-51
2024/03/02 12:06:14;;;;;;;14.00;9.75;;;;;;;;;;5090835;28;20540;-53
2024/03/02 12:08:41;;;;;;;13.98;9.85;;;;;;;;;;5090934;28;20024;-52
2024/03/02 12:11:07;;;;;;;14.50;10.60;;;;;;;;;;5091632;28;20047;-53
2024/03/02 12:13:33;;;;;;;14.00;9.88;;;;;;;;;;5090401;28;20028;-50
2024/03/02 12:16:00;;;;;;;14.10;10.18;;;;;;;;;;4736376;28;10000458;-55
2024/03/02 12:18:26;;;;;;;14.10;10.20;;;;;;;;;;5084253;28;20059;-56
2024/03/02 12:20:52;;;;;;;13.93;9.75;;;;;;;;;;5086570;28;20020;-53
2024/03/02 12:23:19;;;;;;;14.00;9.75;;;;;;;;;;5086229;28;20103;-50
2024/03/02 12:25:45;;;;;;;14.82;10.52;;;;;;;;;;5077586;28;20056;-56
2024/03/02 12:28:11;;;;;;;14.15;10.20;;;;;;;;;;5074350;28;20099;-53
2024/03/02 12:30:37;;;;;;;14.20;10.27;;;;;;;;;;5086152;28;20135;-54
2024/03/02 12:33:04;;;;;;;14.20;10.30;;;;;;;;;;5086232;28;20461;-52
2024/03/02 12:35:30;;;;;;;14.23;10.32;;;;;;;;;;5072582;28;20029;-54
2024/03/02 12:37:56;;;;;;;14.10;10.00;;;;;;;;;;5065425;28;20070;-55
2024/03/02 12:40:22;;;;;;;14.10;10.15;;;;;;;;;;5069436;28;20020;-56
2024/03/02 12:42:49;;;;;;;14.20;10.35;;;;;;;;;;5068416;28;20025;-56
2024/03/02 12:45:16;;;;;;;14.10;10.20;;;;;;;;;;5051369;28;20052;-52
2024/03/02 12:47:43;;;;;;;14.10;10.02;;;;;;;;;;5069505;28;20021;-58
2024/03/02 12:50:09;;;;;;;14.10;10.05;;;;;;;;;;5089390;28;20023;-62
2024/03/02 12:52:36;;;;;;;14.02;10.00;;;;;;;;;;5070204;28;20092;-62
2024/03/02 12:55:03;;;;;;;14.30;10.52;;;;;;;;;;5089091;28;20458;-55
2024/03/02 12:57:29;;;;;;;14.07;10.15;;;;;;;;;;5085010;28;20068;-52
2024/03/02 13:00:08;;;;;;;13.98;9.82;;;;;;;;;;5088953;28;20119;-51
2024/03/02 13:02:35;;;;;;;14.00;10.00;;;;;;;;;;5087634;28;20012;-55
2024/03/02 13:05:01;;;;;;;14.10;10.18;;;;;;;;;;5089133;28;20493;-54
2024/03/02 13:07:27;;;;;;;13.88;9.45;;;;;;;;;;5088963;28;20435;-53
2024/03/02 13:09:56;;;;;;;14.07;10.18;;;;;;;;;;5069972;28;20444;-51
2024/03/02 13:12:23;;;;;;;13.90;9.70;;;;;;;;;;5068354;28;20032;-52
2024/03/02 13:14:51;;;;;;;14.00;9.88;;;;;;;;;;5082822;22;20123;-54
2024/03/02 13:17:17;;;;;;;14.07;10.05;;;;;;;;;;5067675;28;20029;-50
2024/03/02 13:19:44;;;;;;;13.98;9.73;;;;;;;;;;5072540;28;20074;-56
2024/03/02 13:22:10;;;;;;;13.98;9.65;;;;;;;;;;5049840;28;20440;-53
2024/03/02 13:24:36;;;;;;;14.02;10.00;;;;;;;;;;5050077;28;20032;-52
2024/03/02 13:27:03;;;;;;;14.02;10.05;;;;;;;;;;5068448;28;20083;-52
2024/03/02 13:29:29;;;;;;;14.00;9.77;;;;;;;;;;5068554;28;20555;-53
2024/03/02 13:31:57;;;;;;;13.98;9.88;;;;;;;;;;5063112;28;20033;-53
2024/03/02 13:34:23;;;;;;;14.17;10.27;;;;;;;;;;5068288;28;20031;-53
2024/03/02 13:36:50;;;;;;;14.30;10.48;;;;;;;;;;5050721;28;20787;-54
2024/03/02 13:39:16;;;;;;;14.00;9.93;;;;;;;;;;5069059;28;20490;-53
2024/03/02 13:41:44;;;;;;;15.48;10.73;;;;;;;;;;5067211;28;20032;-59
2024/03/02 13:44:10;;;;;;;14.13;10.20;;;;;;;;;;5033749;28;20032;-53
2024/03/02 13:46:36;;;;;;;14.07;9.95;;;;;;;;;;5053269;28;20033;-53
2024/03/02 13:49:03;;;;;;;14.07;10.18;;;;;;;;;;5068281;28;20033;-54
2024/03/02 13:51:30;;;;;;;14.05;10.05;;;;;;;;;;5054873;28;20032;-56
2024/03/02 13:53:55;;;;;;;14.10;10.10;;;;;;;;;;5072552;28;20099;-50
2024/03/02 13:56:22;;;;;;;14.07;10.05;;;;;;;;;;5059627;28;20119;-52
2024/03/02 13:58:48;;;;;;;14.10;10.10;;;;;;;;;;5052940;28;20025;-55
2024/03/02 14:01:14;;;;;;;14.20;10.40;;;;;;;;;;5051893;28;20111;-51
2024/03/02 14:03:40;;;;;;;14.13;10.20;;;;;;;;;;5049902;28;20626;-51
2024/03/02 14:06:06;;;;;;;14.13;10.18;;;;;;;;;;5051623;28;20071;-51
2024/03/02 14:08:33;;;;;;;14.20;10.30;;;;;;;;;;5052504;28;20083;-53
2024/03/02 14:11:00;;;;;;;14.10;9.95;;;;;;;;;;5053153;28;20482;-51
2024/03/02 14:13:26;;;;;;;14.00;9.90;;;;;;;;;;5052618;28;20029;-55
2024/03/02 14:15:52;;;;;;;14.20;10.32;;;;;;;;;;5051947;28;20156;-54
2024/03/02 14:18:18;;;;;;;14.98;11.18;;;;;;;;;;5051480;28;20453;-50
2024/03/02 14:20:44;;;;;;;14.15;10.18;;;;;;;;;;5033450;28;20021;-55
2024/03/02 14:23:10;;;;;;;14.10;10.18;;;;;;;;;;5051060;28;20021;-53
2024/03/02 14:25:36;;;;;;;14.18;10.30;;;;;;;;;;5052355;28;20117;-51
2024/03/02 14:28:02;;;;;;;14.20;10.30;;;;;;;;;;5034364;28;20513;-51
2024/03/02 14:30:28;;;;;;;14.20;10.32;;;;;;;;;;5053827;28;20060;-49